Time;durP1;ratioP1;P1;durP2;ratioP2;P2;SDS_P1;SDS_P2;PMS_P1;PMS_P2;Temp;Humidity;BMP_temperature;BMP_pressure;BME280_temperature;BME280_humidity;BME280_pressure;Samples;Min_cycle;Max_cycle;Signal;HPM_P1;HPM_P2
2023/07/18 00:01:13;;;;;;;4.30;2.10;;;17.80;94.50;;;;;;5086331;28;45263;-77
2023/07/18 00:03:41;;;;;;;4.85;1.95;;;17.70;94.60;;;;;;5085711;28;46657;-76
2023/07/18 00:06:08;;;;;;;5.88;2.50;;;17.70;94.60;;;;;;5085776;28;45242;-77
2023/07/18 00:08:36;;;;;;;6.80;2.03;;;17.60;94.60;;;;;;5086204;28;45107;-76
2023/07/18 00:11:06;;;;;;;7.05;2.55;;;17.60;94.80;;;;;;5086346;28;45006;-77
2023/07/18 00:13:35;;;;;;;7.13;2.25;;;17.60;94.70;;;;;;5085512;28;46127;-77
2023/07/18 00:16:03;;;;;;;4.50;1.80;;;17.70;94.70;;;;;;5085697;28;45088;-76
2023/07/18 00:18:32;;;;;;;5.45;2.58;;;17.70;94.30;;;;;;5085686;27;45072;-77
2023/07/18 00:21:00;;;;;;;9.55;2.25;;;17.80;94.20;;;;;;5088715;28;45128;-77
2023/07/18 00:23:28;;;;;;;3.58;1.95;;;17.70;94.50;;;;;;5091251;28;47456;-77
2023/07/18 00:25:58;;;;;;;3.72;2.15;;;17.60;94.50;;;;;;5089062;28;45034;-77
2023/07/18 00:28:26;;;;;;;4.82;1.92;;;17.50;94.40;;;;;;5089668;28;45030;-76
2023/07/18 00:30:56;;;;;;;7.65;2.08;;;17.40;94.60;;;;;;5089535;28;45328;-76
2023/07/18 00:33:26;;;;;;;4.30;2.35;;;17.20;95.00;;;;;;5089160;28;45847;-76
2023/07/18 00:35:57;;;;;;;7.03;2.10;;;17.30;95.20;;;;;;5088780;28;45062;-76
2023/07/18 00:38:24;;;;;;;4.57;2.22;;;17.30;95.00;;;;;;5088983;28;45071;-76
2023/07/18 00:40:52;;;;;;;5.90;2.40;;;17.50;95.10;;;;;;5089423;28;44969;-76
2023/07/18 00:43:19;;;;;;;5.25;2.03;;;17.40;94.70;;;;;;5088714;28;45557;-77
2023/07/18 00:45:52;;;;;;;5.78;1.90;;;17.40;94.80;;;;;;5089010;28;45091;-76
2023/07/18 00:48:19;;;;;;;3.28;2.08;;;17.30;94.90;;;;;;5088859;28;45015;-76
2023/07/18 00:50:49;;;;;;;4.68;2.10;;;17.20;95.00;;;;;;5089227;28;45385;-76
2023/07/18 00:53:21;;;;;;;3.65;2.00;;;17.20;95.10;;;;;;5089078;28;45678;-77
2023/07/18 00:55:49;;;;;;;6.32;2.05;;;17.10;95.10;;;;;;5088576;28;45132;-77
2023/07/18 00:58:19;;;;;;;5.45;2.33;;;17.10;95.00;;;;;;5088914;28;45038;-76
2023/07/18 01:00:47;;;;;;;3.72;2.08;;;17.10;95.00;;;;;;5089472;28;45279;-76
2023/07/18 01:03:17;;;;;;;4.45;2.05;;;17.20;94.80;;;;;;5088613;28;46314;-76
2023/07/18 01:05:46;;;;;;;4.45;2.08;;;17.30;94.90;;;;;;5088348;28;45046;-77
2023/07/18 01:08:15;;;;;;;5.18;1.73;;;17.20;95.10;;;;;;5088473;28;45164;-77
2023/07/18 01:10:44;;;;;;;3.72;2.00;;;17.20;94.80;;;;;;5088527;28;45367;-76
2023/07/18 01:13:14;;;;;;;6.32;2.33;;;17.20;94.70;;;;;;5088746;28;45380;-77
2023/07/18 01:15:43;;;;;;;6.38;2.03;;;17.10;94.70;;;;;;5090340;28;45238;-76
2023/07/18 01:18:13;;;;;;;3.90;2.28;;;17.10;95.10;;;;;;5088388;28;45227;-76
2023/07/18 01:20:40;;;;;;;4.63;2.15;;;17.10;94.90;;;;;;5088634;28;45375;-76
2023/07/18 01:23:11;;;;;;;5.63;2.70;;;17.20;94.90;;;;;;5088343;28;45788;-77
2023/07/18 01:25:40;;;;;;;6.47;2.53;;;17.30;94.50;;;;;;5088125;28;45143;-77
2023/07/18 01:28:10;;;;;;;4.85;2.47;;;17.30;94.40;;;;;;5088609;28;45114;-76
2023/07/18 01:30:40;;;;;;;9.60;2.50;;;17.20;94.50;;;;;;5088369;27;45359;-76
2023/07/18 01:33:09;;;;;;;6.15;2.70;;;17.10;94.80;;;;;;5088194;28;46468;-76
2023/07/18 01:35:37;;;;;;;8.30;2.70;;;17.20;94.80;;;;;;5088350;28;45184;-76
2023/07/18 01:38:07;;;;;;;4.22;2.10;;;17.20;94.50;;;;;;5088279;28;45090;-76
2023/07/18 01:40:39;;;;;;;6.88;2.40;;;17.30;94.60;;;;;;5088454;28;45078;-77
2023/07/18 01:43:06;;;;;;;3.88;2.15;;;17.30;94.70;;;;;;5088113;28;45387;-76
2023/07/18 01:45:37;;;;;;;7.28;2.50;;;17.20;94.70;;;;;;5088190;28;45968;-76
2023/07/18 01:48:06;;;;;;;4.07;2.55;;;17.30;94.60;;;;;;5087941;28;45227;-76
2023/07/18 01:50:35;;;;;;;4.80;2.42;;;17.30;94.50;;;;;;5087866;28;45356;-77
2023/07/18 01:53:03;;;;;;;6.30;2.33;;;17.30;94.60;;;;;;5087576;28;46407;-76
2023/07/18 01:55:31;;;;;;;5.57;2.15;;;17.30;94.50;;;;;;5087665;28;45054;-76
2023/07/18 01:58:02;;;;;;;6.45;2.42;;;17.20;94.50;;;;;;5087874;28;45237;-77
2023/07/18 02:00:32;;;;;;;4.82;2.70;;;17.30;94.60;;;;;;5087519;28;45101;-76
2023/07/18 02:03:00;;;;;;;4.45;2.20;;;17.20;94.80;;;;;;5088045;28;45715;-76
2023/07/18 02:05:30;;;;;;;4.97;2.20;;;17.00;94.30;;;;;;5090752;28;44958;-77
2023/07/18 02:07:59;;;;;;;4.53;2.13;;;16.90;94.80;;;;;;5087893;28;45015;-76
2023/07/18 02:10:30;;;;;;;5.25;2.47;;;16.80;95.40;;;;;;5087512;28;45357;-76
2023/07/18 02:13:03;;;;;;;6.20;2.70;;;16.90;95.30;;;;;;5087328;28;46557;-76
2023/07/18 02:15:30;;;;;;;7.43;2.50;;;17.00;95.30;;;;;;5087626;28;45145;-76
2023/07/18 02:17:58;;;;;;;8.60;2.35;;;17.00;95.10;;;;;;5087610;28;45078;-77
2023/07/18 02:20:27;;;;;;;6.80;2.50;;;17.10;95.10;;;;;;5087784;28;45180;-77
2023/07/18 02:23:00;;;;;;;5.72;2.25;;;17.10;94.90;;;;;;5087001;28;46608;-76
2023/07/18 02:25:29;;;;;;;5.70;2.25;;;17.20;94.90;;;;;;5087528;28;45179;-77
2023/07/18 02:27:57;;;;;;;12.43;2.72;;;17.20;94.70;;;;;;5087127;28;45122;-76
2023/07/18 02:30:29;;;;;;;6.25;2.50;;;17.20;94.70;;;;;;5087600;28;45028;-76
2023/07/18 02:32:57;;;;;;;3.53;2.33;;;17.10;94.60;;;;;;5087307;28;45402;-76
2023/07/18 02:35:26;;;;;;;4.75;2.40;;;17.00;95.10;;;;;;5087313;28;45121;-77
2023/07/18 02:37:54;;;;;;;3.47;2.30;;;16.90;95.10;;;;;;5087085;28;45200;-77
2023/07/18 02:40:23;;;;;;;5.60;2.30;;;16.90;95.30;;;;;;5087488;28;45292;-76
2023/07/18 02:42:50;;;;;;;6.45;2.40;;;16.90;95.30;;;;;;5086310;27;45443;-77
2023/07/18 02:45:17;;;;;;;5.20;2.72;;;16.80;95.30;;;;;;5087527;28;45239;-77
2023/07/18 02:47:49;;;;;;;7.53;2.70;;;16.70;95.30;;;;;;5086962;28;45105;-77
2023/07/18 02:50:17;;;;;;;3.60;2.55;;;16.80;95.50;;;;;;5087169;28;45198;-76
2023/07/18 02:52:47;;;;;;;4.28;2.47;;;16.90;95.20;;;;;;5086615;28;45521;-77
2023/07/18 02:55:14;;;;;;;6.65;2.55;;;16.90;95.10;;;;;;5088838;28;45015;-76
2023/07/18 02:57:41;;;;;;;5.57;2.95;;;16.80;95.40;;;;;;5087711;28;45117;-76
2023/07/18 03:00:19;;;;;;;8.30;2.80;;;16.80;95.60;;;;;;5086646;28;45398;-76
2023/07/18 03:02:52;;;;;;;14.70;2.67;;;16.80;95.60;;;;;;5086794;28;45616;-76
2023/07/18 03:05:21;;;;;;;6.05;2.50;;;16.80;95.40;;;;;;5086827;28;45105;-76
2023/07/18 03:07:49;;;;;;;4.95;2.50;;;16.70;95.50;;;;;;5086903;28;45083;-77
2023/07/18 03:10:19;;;;;;;5.20;2.45;;;16.60;95.60;;;;;;5087105;28;45492;-76
2023/07/18 03:12:50;;;;;;;7.97;2.53;;;16.60;95.70;;;;;;5086601;28;46683;-76
2023/07/18 03:15:20;;;;;;;7.85;2.70;;;16.60;95.70;;;;;;5086416;28;45180;-76
2023/07/18 03:17:51;;;;;;;4.45;2.58;;;16.60;95.70;;;;;;5086775;28;45027;-76
2023/07/18 03:20:20;;;;;;;5.85;2.45;;;16.70;95.90;;;;;;5086903;28;45053;-76
2023/07/18 03:22:50;;;;;;;5.68;2.60;;;16.60;95.70;;;;;;5086137;28;45521;-76
2023/07/18 03:25:20;;;;;;;5.07;2.70;;;16.50;96.00;;;;;;5086147;28;45165;-76
2023/07/18 03:27:50;;;;;;;6.35;2.28;;;16.40;95.70;;;;;;5086703;28;45087;-76
2023/07/18 03:30:20;;;;;;;6.60;2.67;;;16.40;96.00;;;;;;5087045;28;45182;-77
2023/07/18 03:32:53;;;;;;;5.07;2.70;;;16.40;96.00;;;;;;5086336;28;45755;-76
2023/07/18 03:35:21;;;;;;;5.88;2.50;;;16.40;96.10;;;;;;5086466;28;45161;-77
2023/07/18 03:37:51;;;;;;;6.25;2.55;;;16.50;95.90;;;;;;5086664;28;45053;-76
2023/07/18 03:40:20;;;;;;;4.28;2.20;;;16.40;95.90;;;;;;5086532;28;45287;-76
2023/07/18 03:42:48;;;;;;;6.80;2.20;;;16.50;95.80;;;;;;5086070;28;46381;-76
2023/07/18 03:45:17;;;;;;;5.65;2.35;;;16.40;95.70;;;;;;5086121;28;45018;-76
2023/07/18 03:47:45;;;;;;;3.70;2.13;;;16.40;95.70;;;;;;5089052;28;45114;-76
2023/07/18 03:50:19;;;;;;;6.53;2.97;;;16.50;95.60;;;;;;5086417;28;45474;-76
2023/07/18 03:52:49;;;;;;;5.20;2.60;;;16.40;95.70;;;;;;5085770;28;45926;-76
2023/07/18 03:55:17;;;;;;;5.75;2.47;;;16.40;95.80;;;;;;5089214;27;45043;-76
2023/07/18 03:57:47;;;;;;;4.25;2.30;;;16.50;96.10;;;;;;5089806;28;45100;-76
2023/07/18 04:00:17;;;;;;;6.78;2.42;;;16.70;95.80;;;;;;5089440;28;45407;-76
2023/07/18 04:02:47;;;;;;;4.72;2.40;;;16.80;95.10;;;;;;5089288;28;46704;-76
2023/07/18 04:05:17;;;;;;;6.75;2.63;;;16.70;95.70;;;;;;5089678;28;44945;-76
2023/07/18 04:07:47;;;;;;;9.35;2.70;;;16.70;95.40;;;;;;5089512;28;45126;-77
2023/07/18 04:10:15;;;;;;;5.43;2.28;;;16.60;95.60;;;;;;5089827;28;45057;-77
2023/07/18 04:12:42;;;;;;;5.93;2.50;;;16.40;95.50;;;;;;5089520;28;47181;-73
2023/07/18 04:15:10;;;;;;;11.05;3.25;;;16.20;95.70;;;;;;5089365;28;45120;-73
2023/07/18 04:17:38;;;;;;;6.53;2.58;;;16.20;95.90;;;;;;5089661;28;45082;-73
2023/07/18 04:20:06;;;;;;;8.88;3.15;;;16.40;95.70;;;;;;5089284;28;45428;-73
2023/07/18 04:22:35;;;;;;;6.82;3.00;;;16.40;95.50;;;;;;5089076;28;47928;-74
2023/07/18 04:25:01;;;;;;;8.05;2.42;;;16.40;95.50;;;;;;5089082;28;45608;-76
2023/07/18 04:27:28;;;;;;;6.63;2.80;;;16.40;95.60;;;;;;5089662;28;45126;-76
2023/07/18 04:29:56;;;;;;;7.05;2.70;;;16.40;95.80;;;;;;5089515;28;45017;-76
2023/07/18 04:32:23;;;;;;;6.32;2.13;;;16.60;94.30;;;;;;5089150;28;46383;-76
2023/07/18 04:34:50;;;;;;;3.42;1.80;;;17.20;92.20;;;;;;5089338;28;45103;-75
2023/07/18 04:37:17;;;;;;;8.25;2.65;;;17.70;90.70;;;;;;5092273;28;45111;-75
2023/07/18 04:39:45;;;;;;;4.05;2.20;;;17.60;90.10;;;;;;5089072;28;45313;-76
2023/07/18 04:42:12;;;;;;;4.50;2.05;;;17.70;89.90;;;;;;5088895;28;47974;-76
2023/07/18 04:44:39;;;;;;;4.35;2.22;;;17.70;88.80;;;;;;5089118;28;45635;-76
2023/07/18 04:47:08;;;;;;;5.53;2.45;;;17.70;88.30;;;;;;5088950;28;45134;-75
2023/07/18 04:49:35;;;;;;;7.30;2.30;;;17.90;88.20;;;;;;5089011;28;45465;-77
2023/07/18 04:52:02;;;;;;;11.48;2.83;;;17.70;90.70;;;;;;5088766;28;46319;-76
2023/07/18 04:54:28;;;;;;;7.95;2.92;;;17.10;93.10;;;;;;5089068;28;45343;-73
2023/07/18 04:56:57;;;;;;;6.55;2.85;;;16.90;93.70;;;;;;5089084;28;45043;-73
2023/07/18 04:59:24;;;;;;;11.75;3.13;;;16.90;94.00;;;;;;5088393;28;45439;-75
2023/07/18 05:01:53;;;;;;;11.07;3.35;;;16.80;94.40;;;;;;5089104;28;47323;-76
2023/07/18 05:04:20;;;;;;;5.95;2.30;;;16.80;94.70;;;;;;5089219;28;45250;-76
2023/07/18 05:06:48;;;;;;;7.72;3.00;;;16.90;94.40;;;;;;5088120;27;45237;-76
2023/07/18 05:09:15;;;;;;;7.63;2.78;;;17.20;94.10;;;;;;5088564;28;45320;-73
2023/07/18 05:11:42;;;;;;;6.82;2.38;;;17.60;93.20;;;;;;5088586;28;45207;-74
2023/07/18 05:14:10;;;;;;;8.57;2.80;;;17.70;93.30;;;;;;5088767;28;45007;-74
2023/07/18 05:16:37;;;;;;;9.80;2.75;;;17.70;93.10;;;;;;5088800;28;45200;-74
2023/07/18 05:19:04;;;;;;;9.10;2.72;;;17.70;92.90;;;;;;5088673;28;45030;-76
2023/07/18 05:21:30;;;;;;;14.18;3.10;;;17.50;93.20;;;;;;5088461;28;45567;-77
2023/07/18 05:23:57;;;;;;;5.30;2.35;;;17.30;93.40;;;;;;5088533;28;45094;-77
2023/07/18 05:26:24;;;;;;;5.60;2.67;;;17.40;93.40;;;;;;5088720;28;45093;-77
2023/07/18 05:28:51;;;;;;;9.10;2.00;;;17.40;93.40;;;;;;5091116;28;45324;-77
2023/07/18 05:31:20;;;;;;;7.57;2.10;;;17.70;93.00;;;;;;5088289;28;47594;-77
2023/07/18 05:33:47;;;;;;;4.22;2.33;;;17.80;92.70;;;;;;5088360;28;45296;-77
2023/07/18 05:36:15;;;;;;;6.85;2.38;;;18.10;92.50;;;;;;5088612;28;44995;-77
2023/07/18 05:38:42;;;;;;;8.00;2.50;;;18.40;91.30;;;;;;5088563;28;45107;-77
2023/07/18 05:41:09;;;;;;;6.95;2.50;;;18.10;92.30;;;;;;5088090;28;45241;-77
2023/07/18 05:43:36;;;;;;;7.40;2.30;;;18.00;92.30;;;;;;5088131;28;45000;-77
2023/07/18 05:46:02;;;;;;;7.47;2.42;;;17.90;92.50;;;;;;5088456;28;45003;-77
2023/07/18 05:48:31;;;;;;;7.70;2.38;;;18.40;92.10;;;;;;5088101;28;45363;-76
2023/07/18 05:50:58;;;;;;;5.55;2.25;;;18.50;91.50;;;;;;5088042;28;48245;-77
2023/07/18 05:53:25;;;;;;;7.10;2.05;;;18.30;92.30;;;;;;5088163;28;44980;-77
2023/07/18 05:55:53;;;;;;;4.55;2.60;;;18.10;92.50;;;;;;5088269;28;45031;-77
2023/07/18 05:58:20;;;;;;;6.32;2.17;;;18.60;91.70;;;;;;5088115;28;45084;-77
2023/07/18 06:00:47;;;;;;;8.60;2.10;;;19.10;90.90;;;;;;5087521;28;47358;-77
2023/07/18 06:03:14;;;;;;;3.25;2.10;;;19.40;89.10;;;;;;5087949;28;45326;-77
2023/07/18 06:05:42;;;;;;;7.95;2.33;;;19.60;89.60;;;;;;5087919;28;45024;-77
2023/07/18 06:08:10;;;;;;;9.93;2.40;;;19.40;90.00;;;;;;5087742;28;45103;-77
2023/07/18 06:10:37;;;;;;;9.70;2.17;;;19.20;90.10;;;;;;5087801;28;48281;-77
2023/07/18 06:13:04;;;;;;;5.10;2.38;;;18.90;91.20;;;;;;5087768;28;45104;-77
2023/07/18 06:15:31;;;;;;;4.18;2.10;;;18.90;91.00;;;;;;5087945;28;45039;-77
2023/07/18 06:17:57;;;;;;;7.35;2.30;;;18.80;91.50;;;;;;5086837;27;45428;-77
2023/07/18 06:20:24;;;;;;;4.90;1.88;;;19.20;90.70;;;;;;5090137;28;46755;-73
2023/07/18 06:22:52;;;;;;;9.75;2.22;;;19.20;91.10;;;;;;5087844;28;45047;-74
2023/07/18 06:25:19;;;;;;;7.45;2.13;;;19.20;90.70;;;;;;5087624;28;45208;-74
2023/07/18 06:27:46;;;;;;;3.90;2.17;;;19.20;91.30;;;;;;5087418;28;45022;-76
2023/07/18 06:30:13;;;;;;;4.28;1.88;;;19.20;90.70;;;;;;5087478;28;46687;-76
2023/07/18 06:32:40;;;;;;;3.20;1.70;;;19.20;90.70;;;;;;5087225;28;46381;-76
2023/07/18 06:35:08;;;;;;;3.33;1.90;;;19.30;90.60;;;;;;5087593;28;45074;-76
2023/07/18 06:37:34;;;;;;;4.25;2.15;;;19.30;90.20;;;;;;5087581;28;44996;-77
2023/07/18 06:40:03;;;;;;;3.53;2.00;;;19.40;90.20;;;;;;5087509;28;46422;-77
2023/07/18 06:42:30;;;;;;;7.72;2.38;;;19.40;90.00;;;;;;5087397;28;45148;-77
2023/07/18 06:44:59;;;;;;;7.75;2.15;;;19.50;89.60;;;;;;5087421;28;45066;-77
2023/07/18 06:47:29;;;;;;;7.90;2.58;;;19.40;90.10;;;;;;5087144;28;45430;-77
2023/07/18 06:49:58;;;;;;;3.85;1.95;;;19.40;90.50;;;;;;5087036;28;45664;-77
2023/07/18 06:52:26;;;;;;;10.90;2.03;;;19.50;90.60;;;;;;5086746;28;45176;-77
2023/07/18 06:54:55;;;;;;;8.80;2.00;;;19.60;89.10;;;;;;5087251;28;45038;-77
2023/07/18 06:57:25;;;;;;;8.60;3.20;;;19.60;90.20;;;;;;5086966;28;45192;-77
2023/07/18 06:59:52;;;;;;;6.28;1.70;;;19.70;89.50;;;;;;5086170;28;45343;-77
2023/07/18 07:02:21;;;;;;;6.47;1.75;;;19.60;90.00;;;;;;5087042;28;45027;-77
2023/07/18 07:04:50;;;;;;;3.55;2.00;;;19.60;89.80;;;;;;5087464;28;45156;-77
2023/07/18 07:07:20;;;;;;;7.72;2.33;;;19.70;90.20;;;;;;5086830;28;45454;-77
2023/07/18 07:09:49;;;;;;;5.90;1.73;;;19.70;90.20;;;;;;5086748;28;45521;-77
2023/07/18 07:12:17;;;;;;;6.75;1.80;;;19.70;89.90;;;;;;5089305;28;45054;-77
2023/07/18 07:14:49;;;;;;;4.75;2.15;;;19.80;88.70;;;;;;5086898;28;45075;-77
2023/07/18 07:17:20;;;;;;;4.13;2.00;;;19.80;86.40;;;;;;5087271;28;45457;-77
2023/07/18 07:19:49;;;;;;;3.50;1.80;;;19.70;86.80;;;;;;5086250;28;45682;-77
2023/07/18 07:22:18;;;;;;;7.53;2.10;;;19.80;88.10;;;;;;5086338;28;45113;-77
2023/07/18 07:24:49;;;;;;;8.85;2.20;;;19.80;87.80;;;;;;5086451;28;45254;-77
2023/07/18 07:27:19;;;;;;;5.47;1.85;;;19.90;87.10;;;;;;5086807;28;45134;-77
2023/07/18 07:29:51;;;;;;;8.75;2.05;;;20.10;86.10;;;;;;5086017;28;45367;-77
2023/07/18 07:32:20;;;;;;;5.13;1.98;;;20.10;86.80;;;;;;5086247;28;44974;-77
2023/07/18 07:34:50;;;;;;;4.80;1.70;;;20.10;86.30;;;;;;5086318;28;45080;-77
2023/07/18 07:37:20;;;;;;;2.63;1.70;;;20.20;85.90;;;;;;5086660;28;44992;-76
2023/07/18 07:39:49;;;;;;;7.80;2.10;;;20.10;85.90;;;;;;5086464;28;45873;-77
2023/07/18 07:42:17;;;;;;;7.50;2.00;;;20.20;87.60;;;;;;5086058;28;44980;-77
2023/07/18 07:44:50;;;;;;;6.47;2.00;;;20.20;86.10;;;;;;5086116;28;45079;-77
2023/07/18 07:47:19;;;;;;;7.05;1.80;;;20.20;86.80;;;;;;5087029;28;45344;-77
2023/07/18 07:49:47;;;;;;;5.60;2.03;;;20.20;85.30;;;;;;5086239;28;45602;-77
2023/07/18 07:52:14;;;;;;;8.38;1.90;;;20.20;85.20;;;;;;5086194;28;45082;-77
2023/07/18 07:54:44;;;;;;;8.65;2.00;;;20.30;85.40;;;;;;5086537;28;45054;-77
2023/07/18 07:57:14;;;;;;;4.38;1.67;;;20.30;84.00;;;;;;5086137;28;45256;-76
2023/07/18 07:59:42;;;;;;;7.70;1.80;;;20.30;83.60;;;;;;5085667;28;45632;-76
2023/07/18 08:02:14;;;;;;;7.93;1.90;;;20.40;83.50;;;;;;5088045;28;45034;-76
2023/07/18 08:04:43;;;;;;;4.75;1.70;;;20.50;83.10;;;;;;5086652;28;45050;-77
2023/07/18 08:07:12;;;;;;;3.83;1.48;;;20.60;82.30;;;;;;5086351;28;45012;-76
2023/07/18 08:09:42;;;;;;;7.03;1.80;;;20.70;82.50;;;;;;5085681;28;46560;-77
2023/07/18 08:12:12;;;;;;;6.35;1.65;;;20.70;82.10;;;;;;5085760;28;45043;-77
2023/07/18 08:14:44;;;;;;;4.82;1.17;;;20.70;81.70;;;;;;5086218;28;45094;-77
2023/07/18 08:17:17;;;;;;;4.70;1.33;;;20.70;79.60;;;;;;5086543;28;45201;-77
2023/07/18 08:19:45;;;;;;;4.75;1.23;;;20.80;76.70;;;;;;5085761;28;46600;-77
2023/07/18 08:22:12;;;;;;;11.57;1.02;;;20.90;77.40;;;;;;5085926;28;45090;-76
2023/07/18 08:24:41;;;;;;;4.38;1.00;;;20.90;76.00;;;;;;5086097;28;45050;-76
2023/07/18 08:27:09;;;;;;;3.28;1.38;;;20.90;75.00;;;;;;5086113;28;45164;-77
2023/07/18 08:29:41;;;;;;;2.88;1.00;;;20.80;73.40;;;;;;5085794;28;45432;-77
2023/07/18 08:32:11;;;;;;;3.83;0.98;;;20.90;75.50;;;;;;5085836;28;45171;-77
2023/07/18 08:34:42;;;;;;;7.55;1.67;;;21.00;75.60;;;;;;5085889;28;45200;-77
2023/07/18 08:37:13;;;;;;;3.47;1.10;;;21.10;73.10;;;;;;5085988;28;45035;-77
2023/07/18 08:39:41;;;;;;;3.65;1.42;;;21.10;74.00;;;;;;5085823;27;45516;-77
2023/07/18 08:42:09;;;;;;;5.03;1.30;;;21.20;76.10;;;;;;5088458;28;45015;-77
2023/07/18 08:44:37;;;;;;;7.97;1.40;;;21.30;74.20;;;;;;5089326;28;45158;-76
2023/07/18 08:47:07;;;;;;;2.70;0.90;;;21.30;71.60;;;;;;5089194;28;45316;-76
2023/07/18 08:49:35;;;;;;;5.35;1.10;;;21.30;70.80;;;;;;5088647;28;45494;-76
2023/07/18 08:52:06;;;;;;;1.90;0.75;;;21.40;71.00;;;;;;5088794;28;45090;-76
2023/07/18 08:54:34;;;;;;;3.30;1.10;;;21.30;68.70;;;;;;5092190;28;45014;-76
2023/07/18 08:57:03;;;;;;;2.75;1.05;;;21.40;70.10;;;;;;5089088;28;45349;-77
2023/07/18 08:59:33;;;;;;;4.85;1.10;;;21.40;68.80;;;;;;5088047;28;45627;-77
2023/07/18 09:02:00;;;;;;;3.85;1.27;;;21.40;72.70;;;;;;5088522;28;45099;-76
2023/07/18 09:04:29;;;;;;;5.30;0.95;;;21.50;69.20;;;;;;5088649;28;45089;-76
2023/07/18 09:07:00;;;;;;;4.60;1.17;;;21.50;70.70;;;;;;5088616;28;45460;-76
2023/07/18 09:09:32;;;;;;;4.88;1.30;;;21.60;69.10;;;;;;5088667;28;45618;-77
2023/07/18 09:12:02;;;;;;;10.48;1.60;;;21.60;67.00;;;;;;5088416;28;45180;-77
2023/07/18 09:14:33;;;;;;;3.70;0.80;;;21.70;69.30;;;;;;5089164;28;45172;-77
2023/07/18 09:17:05;;;;;;;2.67;0.93;;;21.70;68.70;;;;;;5088517;28;45003;-77
2023/07/18 09:19:40;;;;;;;6.55;1.38;;;21.70;70.20;;;;;;5088146;28;46637;-77
2023/07/18 09:22:09;;;;;;;13.57;1.10;;;21.80;67.70;;;;;;5088315;28;45131;-77
2023/07/18 09:24:42;;;;;;;8.18;1.35;;;21.80;65.70;;;;;;5089143;28;44947;-77
2023/07/18 09:27:16;;;;;;;11.45;2.17;;;21.70;66.70;;;;;;5088797;28;45104;-77
2023/07/18 09:29:45;;;;;;;6.78;1.50;;;21.70;69.20;;;;;;5088058;28;45422;-77
2023/07/18 09:32:17;;;;;;;8.13;1.40;;;21.60;66.70;;;;;;5087996;28;45172;-77
2023/07/18 09:34:55;;;;;;;5.07;1.15;;;21.60;66.60;;;;;;5088264;28;45099;-77
2023/07/18 09:37:23;;;;;;;6.30;1.13;;;21.60;67.50;;;;;;5088183;28;45101;-77
2023/07/18 09:39:55;;;;;;;8.57;1.88;;;21.60;66.90;;;;;;5087708;28;45534;-77
2023/07/18 09:42:26;;;;;;;10.23;1.42;;;21.70;67.00;;;;;;5088529;28;45137;-77
2023/07/18 09:44:55;;;;;;;4.03;1.33;;;21.70;66.80;;;;;;5088518;28;44964;-77
2023/07/18 09:47:26;;;;;;;6.05;1.25;;;21.60;67.10;;;;;;5091298;28;45086;-77
2023/07/18 09:49:55;;;;;;;5.78;1.10;;;21.70;65.10;;;;;;5088000;28;45654;-77
2023/07/18 09:52:26;;;;;;;9.30;1.60;;;21.70;65.90;;;;;;5087310;28;45141;-77
2023/07/18 09:54:58;;;;;;;4.40;1.30;;;21.70;65.80;;;;;;5088258;28;45079;-77
2023/07/18 09:57:27;;;;;;;4.32;0.98;;;21.80;67.50;;;;;;5088516;28;45069;-76
2023/07/18 09:59:58;;;;;;;4.40;1.05;;;21.80;67.20;;;;;;5087004;28;45539;-77
2023/07/18 10:02:28;;;;;;;7.90;1.30;;;21.90;68.00;;;;;;5087860;28;45089;-77
2023/07/18 10:04:58;;;;;;;6.55;1.30;;;21.90;66.30;;;;;;5087671;28;45112;-77
2023/07/18 10:07:29;;;;;;;5.72;1.13;;;22.00;65.00;;;;;;5087672;28;45268;-78
2023/07/18 10:10:00;;;;;;;3.35;1.20;;;22.00;64.50;;;;;;5087520;28;45793;-78
2023/07/18 10:12:32;;;;;;;4.68;1.08;;;22.00;65.90;;;;;;5087528;28;45072;-78
2023/07/18 10:15:03;;;;;;;8.52;1.20;;;22.10;66.50;;;;;;5088065;28;45096;-79
2023/07/18 10:17:36;;;;;;;4.00;1.08;;;22.10;63.40;;;;;;5087586;28;45477;-77
2023/07/18 10:20:13;;;;;;;7.88;1.23;;;22.20;65.00;;;;;;5087582;28;47095;-77
2023/07/18 10:22:50;;;;;;;3.70;1.17;;;22.00;62.60;;;;;;5079765;28;45100;-78
2023/07/18 10:25:22;;;;;;;4.40;1.10;;;22.00;62.20;;;;;;5087637;28;45130;-78
2023/07/18 10:27:51;;;;;;;11.15;1.23;;;22.00;65.00;;;;;;5087797;28;45115;-78
2023/07/18 10:30:22;;;;;;;2.67;0.82;;;22.10;66.10;;;;;;5087567;28;45289;-79
2023/07/18 10:32:54;;;;;;;6.10;1.05;;;22.10;64.70;;;;;;5087582;28;45014;-78
2023/07/18 10:35:24;;;;;;;8.18;1.48;;;22.20;66.90;;;;;;5087766;28;45074;-79
2023/07/18 10:37:56;;;;;;;2.53;1.00;;;22.20;62.80;;;;;;5090378;28;45589;-77
2023/07/18 10:40:39;;;;;;;7.65;1.30;;;22.10;65.50;;;;;;5087209;28;45567;-78
2023/07/18 10:43:08;;;;;;;8.18;1.30;;;22.20;63.60;;;;;;5086950;28;45149;-78
2023/07/18 10:45:41;;;;;;;8.63;1.42;;;22.20;62.80;;;;;;5087233;28;45066;-77
2023/07/18 10:48:13;;;;;;;7.88;1.58;;;22.30;61.40;;;;;;5087238;28;45015;-77
2023/07/18 10:50:43;;;;;;;22.73;2.70;;;22.20;61.70;;;;;;5086752;28;46384;-77
2023/07/18 10:53:14;;;;;;;11.98;1.98;;;22.20;62.60;;;;;;5086719;28;45037;-77
2023/07/18 10:55:48;;;;;;;3.97;1.40;;;22.30;61.70;;;;;;5087249;28;44960;-77
2023/07/18 10:58:19;;;;;;;3.45;1.27;;;22.20;62.10;;;;;;5087111;28;45113;-77
2023/07/18 11:00:50;;;;;;;6.15;1.50;;;22.20;63.10;;;;;;5086837;28;46519;-77
2023/07/18 11:03:22;;;;;;;2.13;1.20;;;22.20;59.90;;;;;;5086101;27;44967;-77
2023/07/18 11:05:52;;;;;;;5.80;1.90;;;22.10;60.70;;;;;;5087174;28;45103;-77
2023/07/18 11:08:26;;;;;;;4.85;1.60;;;22.10;64.20;;;;;;5087172;28;44998;-77
2023/07/18 11:11:02;;;;;;;7.07;1.52;;;22.10;62.80;;;;;;5086991;28;45535;-77
2023/07/18 11:13:32;;;;;;;7.65;1.50;;;22.00;61.50;;;;;;5087189;28;45003;-77
2023/07/18 11:16:04;;;;;;;5.05;1.50;;;22.10;60.30;;;;;;5087187;28;45132;-77
2023/07/18 11:18:36;;;;;;;3.85;1.50;;;22.00;62.10;;;;;;5086738;28;45023;-77
2023/07/18 11:21:05;;;;;;;10.10;1.60;;;22.10;61.70;;;;;;5086375;28;46778;-77
2023/07/18 11:23:35;;;;;;;8.48;1.60;;;22.20;61.60;;;;;;5086621;28;45052;-77
2023/07/18 11:26:16;;;;;;;3.60;1.30;;;22.10;61.00;;;;;;5086536;28;45189;-77
2023/07/18 11:28:45;;;;;;;8.55;1.38;;;22.10;62.40;;;;;;5086875;28;45415;-76
2023/07/18 11:31:27;;;;;;;5.05;1.70;;;22.10;61.70;;;;;;5089437;28;45374;-77
2023/07/18 11:33:58;;;;;;;7.35;1.35;;;22.20;64.20;;;;;;5086605;28;45048;-76
2023/07/18 11:36:30;;;;;;;3.40;1.30;;;22.30;64.10;;;;;;5086850;28;45059;-77
2023/07/18 11:39:00;;;;;;;3.40;1.13;;;22.30;66.80;;;;;;5086945;28;45346;-77
2023/07/18 11:41:39;;;;;;;9.07;1.67;;;22.20;66.30;;;;;;5086087;28;46337;-75
2023/07/18 11:44:08;;;;;;;5.07;1.10;;;22.30;64.30;;;;;;5080474;27;45135;-63
2023/07/18 11:46:39;;;;;;;1.95;1.05;;;22.50;67.70;;;;;;5069808;27;45379;-62
2023/07/18 11:49:06;;;;;;;1.98;0.80;;;22.80;66.90;;;;;;5074542;27;45302;-62
2023/07/18 11:51:33;;;;;;;2.30;0.93;;;22.90;66.60;;;;;;5077842;27;45264;-63
2023/07/18 11:54:01;;;;;;;1.15;0.90;;;23.00;66.40;;;;;;5077145;28;45292;-63
2023/07/18 11:56:28;;;;;;;3.35;1.10;;;23.00;66.60;;;;;;5067189;27;45522;-63
2023/07/18 11:58:56;;;;;;;2.35;0.90;;;23.10;66.90;;;;;;5080576;28;45294;-62
2023/07/18 12:01:23;;;;;;;1.55;0.70;;;23.10;66.90;;;;;;5081427;28;47369;-63
2023/07/18 12:03:51;;;;;;;2.03;0.77;;;23.10;66.80;;;;;;5082017;28;45395;-63
2023/07/18 12:06:18;;;;;;;1.55;0.73;;;23.10;66.90;;;;;;5095448;27;45279;-63
2023/07/18 12:08:45;;;;;;;1.85;0.70;;;23.10;67.10;;;;;;5082425;28;45141;-63
2023/07/18 12:11:11;;;;;;;1.30;0.90;;;23.10;68.50;;;;;;5081667;28;48306;-63
2023/07/18 12:13:39;;;;;;;1.20;0.80;;;23.10;67.50;;;;;;5078048;28;45164;-62
2023/07/18 12:16:07;;;;;;;4.22;0.90;;;23.10;67.30;;;;;;5087101;27;45240;-62
2023/07/18 12:18:34;;;;;;;2.10;0.80;;;23.10;67.50;;;;;;5085902;27;45131;-62
2023/07/18 12:21:01;;;;;;;0.95;0.80;;;23.10;67.60;;;;;;5084790;28;47183;-62
2023/07/18 12:23:28;;;;;;;1.02;0.80;;;23.10;67.90;;;;;;5089546;27;45249;-63
2023/07/18 12:25:55;;;;;;;2.22;0.82;;;23.10;68.10;;;;;;5100192;27;45170;-63
2023/07/18 12:28:21;;;;;;;1.08;0.60;;;23.10;68.20;;;;;;5087460;27;45255;-63
2023/07/18 12:30:48;;;;;;;0.73;0.70;;;23.10;68.30;;;;;;5085121;28;47311;-64
2023/07/18 12:33:16;;;;;;;1.40;0.80;;;23.10;68.30;;;;;;5085277;28;45776;-62
2023/07/18 12:35:43;;;;;;;1.00;0.80;;;23.10;68.20;;;;;;5085415;28;45254;-63
2023/07/18 12:38:10;;;;;;;2.05;0.90;;;23.10;67.90;;;;;;5092126;27;45216;-62
2023/07/18 12:40:37;;;;;;;1.25;0.85;;;23.10;67.90;;;;;;5086760;27;45316;-62
2023/07/18 12:43:05;;;;;;;1.38;0.88;;;23.10;67.90;;;;;;5085000;28;45322;-63
2023/07/18 12:45:33;;;;;;;1.45;0.80;;;23.10;67.90;;;;;;5085370;28;45244;-63
2023/07/18 12:48:00;;;;;;;1.13;0.93;;;23.10;68.10;;;;;;5085409;28;45217;-63
2023/07/18 12:50:29;;;;;;;0.55;0.55;;;23.20;68.20;;;;;;5086412;27;46278;-63
2023/07/18 12:52:57;;;;;;;0.63;0.60;;;23.20;69.40;;;;;;5097560;27;45373;-63
2023/07/18 12:55:24;;;;;;;1.25;0.80;;;23.10;68.20;;;;;;5085676;27;45059;-62